sensor_id;sensor_type;location;lat;lon;timestamp;pressure;altitude;pressure_sealevel;temperature;humidity
69060;BME280;56135;37.534;-122.308;2023-02-28T00:00:33;101234.91;;;7.88;100.00
69060;BME280;56135;37.534;-122.308;2023-02-28T00:02:59;101240.13;;;7.83;100.00
69060;BME280;56135;37.534;-122.308;2023-02-28T00:05:27;101244.44;;;7.74;100.00
69060;BME280;56135;37.534;-122.308;2023-02-28T00:07:53;101247.03;;;7.67;100.00
69060;BME280;56135;37.534;-122.308;2023-02-28T00:10:22;101246.09;;;7.59;100.00
69060;BME280;56135;37.534;-122.308;2023-02-28T00:12:50;101252.22;;;7.55;100.00
69060;BME280;56135;37.534;-122.308;2023-02-28T00:15:17;101248.72;;;7.56;100.00
69060;BME280;56135;37.534;-122.308;2023-02-28T00:17:43;101246.94;;;7.54;100.00
69060;BME280;56135;37.534;-122.308;2023-02-28T00:20:11;101246.09;;;7.56;100.00
69060;BME280;56135;37.534;-122.308;2023-02-28T00:22:44;101240.84;;;7.59;100.00
69060;BME280;56135;37.534;-122.308;2023-02-28T00:25:18;101245.25;;;7.60;100.00
69060;BME280;56135;37.534;-122.308;2023-02-28T00:27:46;101247.78;;;7.49;100.00
69060;BME280;56135;37.534;-122.308;2023-02-28T00:30:17;101257.38;;;7.46;100.00
69060;BME280;56135;37.534;-122.308;2023-02-28T00:32:43;101252.00;;;7.30;100.00
69060;BME280;56135;37.534;-122.308;2023-02-28T00:35:12;101252.81;;;7.23;100.00
69060;BME280;56135;37.534;-122.308;2023-02-28T00:37:38;101259.69;;;7.09;100.00
69060;BME280;56135;37.534;-122.308;2023-02-28T00:40:06;101262.25;;;7.04;100.00
69060;BME280;56135;37.534;-122.308;2023-02-28T00:42:33;101270.03;;;6.93;100.00
69060;BME280;56135;37.534;-122.308;2023-02-28T00:45:00;101275.19;;;6.85;100.00
69060;BME280;56135;37.534;-122.308;2023-02-28T00:47:27;101279.50;;;6.79;100.00
69060;BME280;56135;37.534;-122.308;2023-02-28T00:49:53;101279.47;;;6.77;100.00
69060;BME280;56135;37.534;-122.308;2023-02-28T00:52:19;101282.00;;;6.70;100.00
69060;BME280;56135;37.534;-122.308;2023-02-28T00:54:45;101281.16;;;6.72;100.00
69060;BME280;56135;37.534;-122.308;2023-02-28T00:57:11;101286.41;;;6.69;100.00
69060;BME280;56135;37.534;-122.308;2023-02-28T00:59:38;101289.00;;;6.67;100.00
69060;BME280;56135;37.534;-122.308;2023-02-28T01:02:04;101290.81;;;6.73;100.00
69060;BME280;56135;37.534;-122.308;2023-02-28T01:04:30;101295.22;;;6.76;100.00
69060;BME280;56135;37.534;-122.308;2023-02-28T01:06:56;101294.38;;;6.77;100.00
69060;BME280;56135;37.534;-122.308;2023-02-28T01:09:23;101302.19;;;6.72;100.00
69060;BME280;56135;37.534;-122.308;2023-02-28T01:11:49;101294.25;;;6.67;100.00
69060;BME280;56135;37.534;-122.308;2023-02-28T01:14:16;101286.41;;;6.69;100.00
69060;BME280;56135;37.534;-122.308;2023-02-28T01:16:43;101303.03;;;6.70;100.00
69060;BME280;56135;37.534;-122.308;2023-02-28T01:19:10;101296.88;;;6.67;100.00
69060;BME280;56135;37.534;-122.308;2023-02-28T01:21:36;101298.59;;;6.65;100.00
69060;BME280;56135;37.534;-122.308;2023-02-28T01:24:03;101300.25;;;6.56;100.00
69060;BME280;56135;37.534;-122.308;2023-02-28T01:26:30;101301.06;;;6.53;100.00
69060;BME280;56135;37.534;-122.308;2023-02-28T01:28:56;101304.53;;;6.49;100.00
69060;BME280;56135;37.534;-122.308;2023-02-28T01:31:23;101315.78;;;6.42;100.00
69060;BME280;56135;37.534;-122.308;2023-02-28T01:33:50;101302.63;;;6.39;100.00
69060;BME280;56135;37.534;-122.308;2023-02-28T01:36:22;101313.03;;;6.32;100.00
69060;BME280;56135;37.534;-122.308;2023-02-28T01:38:49;101305.97;;;6.25;100.00
69060;BME280;56135;37.534;-122.308;2023-02-28T01:41:24;101308.47;;;6.17;100.00
69060;BME280;56135;37.534;-122.308;2023-02-28T01:46:17;101305.72;;;6.10;100.00
69060;BME280;56135;37.534;-122.308;2023-02-28T01:51:19;101310.78;;;5.97;100.00
69060;BME280;56135;37.534;-122.308;2023-02-28T01:53:54;101318.50;;;5.90;100.00
69060;BME280;56135;37.534;-122.308;2023-02-28T01:56:26;101316.72;;;5.85;100.00
69060;BME280;56135;37.534;-122.308;2023-02-28T01:58:54;101321.94;;;5.84;100.00
69060;BME280;56135;37.534;-122.308;2023-02-28T02:01:21;101321.13;;;5.88;100.00
69060;BME280;56135;37.534;-122.308;2023-02-28T02:03:54;101321.16;;;5.93;100.00
69060;BME280;56135;37.534;-122.308;2023-02-28T02:06:23;101326.41;;;5.91;100.00
69060;BME280;56135;37.534;-122.308;2023-02-28T02:08:50;101331.63;;;5.90;100.00
69060;BME280;56135;37.534;-122.308;2023-02-28T02:11:19;101334.25;;;5.91;100.00
69060;BME280;56135;37.534;-122.308;2023-02-28T02:25:34;101355.59;;;5.59;100.00
69060;BME280;56135;37.534;-122.308;2023-02-28T02:28:40;101359.88;;;5.54;100.00
69060;BME280;56135;37.534;-122.308;2023-02-28T02:36:46;101362.97;;;5.33;100.00
69060;BME280;56135;37.534;-122.308;2023-02-28T02:39:30;101361.16;;;5.29;100.00
69060;BME280;56135;37.534;-122.308;2023-02-28T02:42:01;101359.28;;;5.22;100.00
69060;BME280;56135;37.534;-122.308;2023-02-28T02:44:53;101361.88;;;5.20;100.00
69060;BME280;56135;37.534;-122.308;2023-02-28T02:47:24;101368.00;;;5.21;100.00
69060;BME280;56135;37.534;-122.308;2023-02-28T02:49:55;101366.16;;;5.16;100.00
69060;BME280;56135;37.534;-122.308;2023-02-28T02:52:27;101371.25;;;5.09;100.00
69060;BME280;56135;37.534;-122.308;2023-02-28T02:54:56;101375.50;;;5.04;100.00
69060;BME280;56135;37.534;-122.308;2023-02-28T02:57:30;101381.53;;;4.98;100.00
69060;BME280;56135;37.534;-122.308;2023-02-28T02:59:59;101386.66;;;4.93;100.00
69060;BME280;56135;37.534;-122.308;2023-02-28T03:02:28;101390.88;;;4.87;100.00
69060;BME280;56135;37.534;-122.308;2023-02-28T03:05:03;101399.59;;;4.86;100.00
69060;BME280;56135;37.534;-122.308;2023-02-28T03:07:30;101397.66;;;4.77;100.00
69060;BME280;56135;37.534;-122.308;2023-02-28T03:09:57;101402.75;;;4.71;100.00
69060;BME280;56135;37.534;-122.308;2023-02-28T03:12:43;101397.41;;;4.64;100.00
69060;BME280;56135;37.534;-122.308;2023-02-28T03:15:27;101401.63;;;4.58;100.00
69060;BME280;56135;37.534;-122.308;2023-02-28T03:18:06;101405.84;;;4.51;100.00
69060;BME280;56135;37.534;-122.308;2023-02-28T03:26:31;101418.50;;;4.32;100.00
69060;BME280;56135;37.534;-122.308;2023-02-28T03:31:53;101424.41;;;4.25;100.00
69060;BME280;56135;37.534;-122.308;2023-02-28T03:34:33;101427.78;;;4.21;100.00
69060;BME280;56135;37.534;-122.308;2023-02-28T03:37:07;101435.63;;;4.21;100.00
69060;BME280;56135;37.534;-122.308;2023-02-28T03:39:47;101425.13;;;4.18;100.00
69060;BME280;56135;37.534;-122.308;2023-02-28T03:42:23;101427.72;;;4.18;100.00
69060;BME280;56135;37.534;-122.308;2023-02-28T03:44:58;101428.53;;;4.15;100.00
69060;BME280;56135;37.534;-122.308;2023-02-28T03:47:53;101424.91;;;4.10;100.00
69060;BME280;56135;37.534;-122.308;2023-02-28T03:50:34;101425.72;;;4.08;100.00
69060;BME280;56135;37.534;-122.308;2023-02-28T03:53:07;101441.47;;;4.11;100.00
69060;BME280;56135;37.534;-122.308;2023-02-28T03:56:29;101446.91;;;4.18;100.00
69060;BME280;56135;37.534;-122.308;2023-02-28T03:58:49;101447.16;;;4.29;100.00
69060;BME280;56135;37.534;-122.308;2023-02-28T04:04:02;101444.97;;;4.46;100.00
69060;BME280;56135;37.534;-122.308;2023-02-28T04:06:31;101449.44;;;4.52;100.00
69060;BME280;56135;37.534;-122.308;2023-02-28T04:08:58;101451.34;;;4.58;100.00
69060;BME280;56135;37.534;-122.308;2023-02-28T04:11:35;101457.44;;;4.58;100.00
69060;BME280;56135;37.534;-122.308;2023-02-28T04:14:03;101458.25;;;4.56;100.00
69060;BME280;56135;37.534;-122.308;2023-02-28T04:16:31;101454.78;;;4.55;100.00
69060;BME280;56135;37.534;-122.308;2023-02-28T04:18:58;101456.47;;;4.55;100.00
69060;BME280;56135;37.534;-122.308;2023-02-28T04:21:30;101453.00;;;4.54;100.00
69060;BME280;56135;37.534;-122.308;2023-02-28T04:23:57;101455.63;;;4.54;100.00
69060;BME280;56135;37.534;-122.308;2023-02-28T04:26:30;101459.97;;;4.54;100.00
69060;BME280;56135;37.534;-122.308;2023-02-28T04:28:57;101462.53;;;4.52;100.00
69060;BME280;56135;37.534;-122.308;2023-02-28T04:31:24;101456.38;;;4.50;100.00
69060;BME280;56135;37.534;-122.308;2023-02-28T04:33:50;101452.88;;;4.49;100.00
69060;BME280;56135;37.534;-122.308;2023-02-28T04:36:17;101454.75;;;4.54;100.00
69060;BME280;56135;37.534;-122.308;2023-02-28T04:38:44;101448.66;;;4.56;100.00
69060;BME280;56135;37.534;-122.308;2023-02-28T04:41:14;101462.72;;;4.60;100.00
69060;BME280;56135;37.534;-122.308;2023-02-28T04:43:40;101451.41;;;4.61;100.00
69060;BME280;56135;37.534;-122.308;2023-02-28T04:46:07;101455.00;;;4.66;100.00
69060;BME280;56135;37.534;-122.308;2023-02-28T04:48:36;101451.56;;;4.67;100.00
69060;BME280;56135;37.534;-122.308;2023-02-28T04:51:11;101447.25;;;4.71;100.00
69060;BME280;56135;37.534;-122.308;2023-02-28T04:53:38;101449.00;;;4.70;100.00
69060;BME280;56135;37.534;-122.308;2023-02-28T04:56:05;101448.16;;;4.71;100.00
69060;BME280;56135;37.534;-122.308;2023-02-28T04:58:32;101467.38;;;4.73;100.00
69060;BME280;56135;37.534;-122.308;2023-02-28T05:01:14;101464.75;;;4.73;100.00
69060;BME280;56135;37.534;-122.308;2023-02-28T05:03:43;101464.84;;;4.76;100.00
69060;BME280;56135;37.534;-122.308;2023-02-28T05:06:10;101466.56;;;4.76;100.00
69060;BME280;56135;37.534;-122.308;2023-02-28T05:08:37;101474.41;;;4.76;100.00
69060;BME280;56135;37.534;-122.308;2023-02-28T05:11:06;101477.88;;;4.75;100.00
69060;BME280;56135;37.534;-122.308;2023-02-28T05:13:32;101480.47;;;4.73;100.00
69060;BME280;56135;37.534;-122.308;2023-02-28T05:15:58;101477.75;;;4.68;100.00
69060;BME280;56135;37.534;-122.308;2023-02-28T05:18:24;101477.75;;;4.68;100.00
69060;BME280;56135;37.534;-122.308;2023-02-28T05:20:51;101475.91;;;4.64;100.00
69060;BME280;56135;37.534;-122.308;2023-02-28T05:23:17;101476.72;;;4.62;100.00
69060;BME280;56135;37.534;-122.308;2023-02-28T05:25:45;101471.38;;;4.57;100.00
69060;BME280;56135;37.534;-122.308;2023-02-28T05:28:12;101487.84;;;4.53;100.00
69060;BME280;56135;37.534;-122.308;2023-02-28T05:30:38;101485.19;;;4.51;100.00
69060;BME280;56135;37.534;-122.308;2023-02-28T05:33:04;101474.63;;;4.47;100.00
69060;BME280;56135;37.534;-122.308;2023-02-28T05:35:31;101472.97;;;4.50;100.00
69060;BME280;56135;37.534;-122.308;2023-02-28T05:37:58;101470.53;;;4.58;100.00
69060;BME280;56135;37.534;-122.308;2023-02-28T05:40:24;101471.56;;;4.65;100.00
69060;BME280;56135;37.534;-122.308;2023-02-28T05:42:50;101477.75;;;4.68;100.00
69060;BME280;56135;37.534;-122.308;2023-02-28T05:45:16;101473.50;;;4.74;100.00
69060;BME280;56135;37.534;-122.308;2023-02-28T05:47:48;101476.19;;;4.77;100.00
69060;BME280;56135;37.534;-122.308;2023-02-28T05:50:21;101492.06;;;4.84;100.00
69060;BME280;56135;37.534;-122.308;2023-02-28T05:52:54;101514.84;;;4.89;100.00
69060;BME280;56135;37.534;-122.308;2023-02-28T05:55:23;101524.56;;;4.94;100.00
69060;BME280;56135;37.534;-122.308;2023-02-28T05:57:52;101543.22;;;5.07;100.00
69060;BME280;56135;37.534;-122.308;2023-02-28T07:24:14;101568.00;;;4.16;100.00
69060;BME280;56135;37.534;-122.308;2023-02-28T07:26:41;101566.31;;;4.16;100.00
69060;BME280;56135;37.534;-122.308;2023-02-28T07:29:07;101567.09;;;4.14;100.00
69060;BME280;56135;37.534;-122.308;2023-02-28T07:31:34;101567.84;;;4.10;100.00
69060;BME280;56135;37.534;-122.308;2023-02-28T07:34:00;101566.84;;;4.05;100.00
69060;BME280;56135;37.534;-122.308;2023-02-28T07:36:26;101568.47;;;3.99;100.00
69060;BME280;56135;37.534;-122.308;2023-02-28T07:38:52;101570.06;;;3.94;100.00
69060;BME280;56135;37.534;-122.308;2023-02-28T07:41:20;101562.19;;;3.93;100.00
69060;BME280;56135;37.534;-122.308;2023-02-28T07:43:47;101568.19;;;3.90;100.00
69060;BME280;56135;37.534;-122.308;2023-02-28T07:46:15;101569.75;;;3.83;100.00
69060;BME280;56135;37.534;-122.308;2023-02-28T07:48:43;101560.06;;;3.79;100.00
69060;BME280;56135;37.534;-122.308;2023-02-28T07:51:09;101567.72;;;3.73;100.00
69060;BME280;56135;37.534;-122.308;2023-02-28T07:53:36;101564.94;;;3.67;100.00
69060;BME280;56135;37.534;-122.308;2023-02-28T07:56:02;101563.88;;;3.60;100.00
69060;BME280;56135;37.534;-122.308;2023-02-28T07:58:29;101562.88;;;3.57;100.00
69060;BME280;56135;37.534;-122.308;2023-02-28T08:00:56;101566.97;;;3.47;100.00
69060;BME280;56135;37.534;-122.308;2023-02-28T08:03:24;101564.31;;;3.45;100.00
69060;BME280;56135;37.534;-122.308;2023-02-28T08:05:50;101559.88;;;3.43;100.00
69060;BME280;56135;37.534;-122.308;2023-02-28T08:08:18;101562.28;;;3.37;100.00
69060;BME280;56135;37.534;-122.308;2023-02-28T08:10:44;101562.97;;;3.29;100.00
69060;BME280;56135;37.534;-122.308;2023-02-28T08:13:10;101565.50;;;3.26;100.00
69060;BME280;56135;37.534;-122.308;2023-02-28T08:15:36;101558.50;;;3.25;100.00
69060;BME280;56135;37.534;-122.308;2023-02-28T08:18:03;101559.31;;;3.24;100.00
69060;BME280;56135;37.534;-122.308;2023-02-28T08:20:29;101556.72;;;3.24;100.00
69060;BME280;56135;37.534;-122.308;2023-02-28T08:22:56;101548.00;;;3.24;100.00
69060;BME280;56135;37.534;-122.308;2023-02-28T08:25:22;101547.09;;;3.23;100.00
69060;BME280;56135;37.534;-122.308;2023-02-28T08:27:51;101548.88;;;3.24;100.00
69060;BME280;56135;37.534;-122.308;2023-02-28T08:30:17;101548.88;;;3.24;100.00
69060;BME280;56135;37.534;-122.308;2023-02-28T08:32:43;101545.56;;;3.30;100.00
69060;BME280;56135;37.534;-122.308;2023-02-28T08:35:10;101548.16;;;3.30;100.00
69060;BME280;56135;37.534;-122.308;2023-02-28T08:37:36;101542.03;;;3.28;100.00
69060;BME280;56135;37.534;-122.308;2023-02-28T08:40:02;101547.22;;;3.26;100.00
69060;BME280;56135;37.534;-122.308;2023-02-28T08:42:49;101542.00;;;3.26;100.00
69060;BME280;56135;37.534;-122.308;2023-02-28T08:45:16;101542.06;;;3.29;100.00
69060;BME280;56135;37.534;-122.308;2023-02-28T08:47:42;101543.94;;;3.33;100.00
69060;BME280;56135;37.534;-122.308;2023-02-28T08:50:09;101531.91;;;3.39;100.00
69060;BME280;56135;37.534;-122.308;2023-02-28T08:52:35;101539.97;;;3.46;100.00
69060;BME280;56135;37.534;-122.308;2023-02-28T08:55:01;101527.22;;;3.57;100.00
69060;BME280;56135;37.534;-122.308;2023-02-28T08:57:27;101528.00;;;3.55;100.00
69060;BME280;56135;37.534;-122.308;2023-02-28T08:59:53;101532.34;;;3.54;100.00
69060;BME280;56135;37.534;-122.308;2023-02-28T09:02:20;101534.09;;;3.55;100.00
69060;BME280;56135;37.534;-122.308;2023-02-28T09:04:46;101542.69;;;3.51;100.00
69060;BME280;56135;37.534;-122.308;2023-02-28T09:07:12;101547.00;;;3.49;100.00
69060;BME280;56135;37.534;-122.308;2023-02-28T09:09:38;101552.16;;;3.47;100.00
69060;BME280;56135;37.534;-122.308;2023-02-28T09:12:23;101555.59;;;3.45;100.00
69060;BME280;56135;37.534;-122.308;2023-02-28T09:14:49;101556.47;;;3.45;100.00
69060;BME280;56135;37.534;-122.308;2023-02-28T09:17:16;101553.91;;;3.47;100.00
69060;BME280;56135;37.534;-122.308;2023-02-28T09:19:43;101554.78;;;3.47;100.00
69060;BME280;56135;37.534;-122.308;2023-02-28T09:22:10;101558.53;;;3.56;100.00
69060;BME280;56135;37.534;-122.308;2023-02-28T09:24:37;101554.34;;;3.62;100.00
69060;BME280;56135;37.534;-122.308;2023-02-28T09:27:04;101559.84;;;3.72;100.00
69060;BME280;56135;37.534;-122.308;2023-02-28T09:29:34;101568.72;;;3.77;100.00
69060;BME280;56135;37.534;-122.308;2023-02-28T09:32:00;101557.56;;;3.84;100.00
69060;BME280;56135;37.534;-122.308;2023-02-28T09:34:28;101558.63;;;3.91;100.00
69060;BME280;56135;37.534;-122.308;2023-02-28T09:36:57;101557.91;;;3.96;100.00
69060;BME280;56135;37.534;-122.308;2023-02-28T09:39:23;101549.28;;;4.00;100.00
69060;BME280;56135;37.534;-122.308;2023-02-28T09:41:52;101546.75;;;4.02;100.00
69060;BME280;56135;37.534;-122.308;2023-02-28T09:44:30;101551.00;;;3.98;100.00
69060;BME280;56135;37.534;-122.308;2023-02-28T09:47:01;101551.69;;;3.91;100.00
69060;BME280;56135;37.534;-122.308;2023-02-28T09:49:41;101547.19;;;3.87;100.00
69060;BME280;56135;37.534;-122.308;2023-02-28T09:52:15;101538.28;;;3.80;100.00
69060;BME280;56135;37.534;-122.308;2023-02-28T09:54:43;101538.19;;;3.76;100.00
69060;BME280;56135;37.534;-122.308;2023-02-28T10:05:26;101524.44;;;3.53;100.00
69060;BME280;56135;37.534;-122.308;2023-02-28T10:08:02;101523.31;;;3.43;100.00
69060;BME280;56135;37.534;-122.308;2023-02-28T10:10:45;101524.84;;;3.36;100.00
69060;BME280;56135;37.534;-122.308;2023-02-28T10:16:13;101515.72;;;3.22;100.00
69060;BME280;56135;37.534;-122.308;2023-02-28T10:18:51;101512.06;;;3.15;100.00
69060;BME280;56135;37.534;-122.308;2023-02-28T10:24:43;101516.94;;;3.04;100.00
69060;BME280;56135;37.534;-122.308;2023-02-28T10:26:45;101508.06;;;2.97;100.00
69060;BME280;56135;37.534;-122.308;2023-02-28T10:29:13;101500.03;;;2.91;100.00
69060;BME280;56135;37.534;-122.308;2023-02-28T10:31:40;101496.41;;;2.88;100.00
69060;BME280;56135;37.534;-122.308;2023-02-28T10:34:07;101493.69;;;2.83;100.00
69060;BME280;56135;37.534;-122.308;2023-02-28T10:36:38;101489.22;;;2.79;100.00
69060;BME280;56135;37.534;-122.308;2023-02-28T10:39:35;101485.66;;;2.77;100.00
69060;BME280;56135;37.534;-122.308;2023-02-28T10:42:04;101486.44;;;2.74;100.00
69060;BME280;56135;37.534;-122.308;2023-02-28T10:44:30;101483.75;;;2.71;100.00
69060;BME280;56135;37.534;-122.308;2023-02-28T10:46:56;101488.03;;;2.69;100.00
69060;BME280;56135;37.534;-122.308;2023-02-28T10:49:26;101482.75;;;2.67;100.00
69060;BME280;56135;37.534;-122.308;2023-02-28T10:51:56;101480.09;;;2.66;100.00
69060;BME280;56135;37.534;-122.308;2023-02-28T10:54:30;101474.84;;;2.64;100.00
69060;BME280;56135;37.534;-122.308;2023-02-28T10:57:20;101481.72;;;2.62;100.00
69060;BME280;56135;37.534;-122.308;2023-02-28T11:00:14;101481.69;;;2.61;100.00
69060;BME280;56135;37.534;-122.308;2023-02-28T11:02:40;101484.25;;;2.59;100.00
69060;BME280;56135;37.534;-122.308;2023-02-28T11:05:35;101476.44;;;2.59;100.00
69060;BME280;56135;37.534;-122.308;2023-02-28T11:08:12;101479.03;;;2.59;100.00
69060;BME280;56135;37.534;-122.308;2023-02-28T11:10:43;101473.81;;;2.59;100.00
69060;BME280;56135;37.534;-122.308;2023-02-28T11:13:18;101468.63;;;2.61;100.00
69060;BME280;56135;37.534;-122.308;2023-02-28T11:15:54;101461.66;;;2.60;100.00
69060;BME280;56135;37.534;-122.308;2023-02-28T11:21:06;101468.69;;;2.62;100.00
69060;BME280;56135;37.534;-122.308;2023-02-28T11:23:36;101459.25;;;2.66;100.00
69060;BME280;56135;37.534;-122.308;2023-02-28T11:26:06;101463.59;;;2.65;100.00
69060;BME280;56135;37.534;-122.308;2023-02-28T11:28:40;101460.84;;;2.62;100.00
69060;BME280;56135;37.534;-122.308;2023-02-28T11:33:54;101458.53;;;2.72;100.00
69060;BME280;56135;37.534;-122.308;2023-02-28T11:36:24;101463.75;;;2.72;100.00
69060;BME280;56135;37.534;-122.308;2023-02-28T11:38:51;101457.66;;;2.71;100.00
69060;BME280;56135;37.534;-122.308;2023-02-28T11:41:56;101451.50;;;2.69;100.00
69060;BME280;56135;37.534;-122.308;2023-02-28T11:44:37;101448.09;;;2.72;100.00
69060;BME280;56135;37.534;-122.308;2023-02-28T11:47:17;101444.66;;;2.73;100.00
69060;BME280;56135;37.534;-122.308;2023-02-28T11:52:47;101440.47;;;2.78;100.00
69060;BME280;56135;37.534;-122.308;2023-02-28T11:55:26;101448.28;;;2.78;100.00
69060;BME280;56135;37.534;-122.308;2023-02-28T12:08:47;101427.75;;;2.89;100.00
69060;BME280;56135;37.534;-122.308;2023-02-28T12:14:55;101428.91;;;2.98;100.00
69060;BME280;56135;37.534;-122.308;2023-02-28T12:20:15;101428.25;;;3.06;100.00
69060;BME280;56135;37.534;-122.308;2023-02-28T12:27:47;101421.47;;;3.12;100.00
69060;BME280;56135;37.534;-122.308;2023-02-28T12:30:19;101406.75;;;3.14;100.00
69060;BME280;56135;37.534;-122.308;2023-02-28T12:33:01;101406.81;;;3.17;100.00
69060;BME280;56135;37.534;-122.308;2023-02-28T12:35:46;101406.88;;;3.21;100.00
69060;BME280;56135;37.534;-122.308;2023-02-28T12:38:24;101409.69;;;3.27;100.00
69060;BME280;56135;37.534;-122.308;2023-02-28T12:41:15;101394.34;;;3.39;100.00
69060;BME280;56135;37.534;-122.308;2023-02-28T12:43:46;101393.75;;;3.49;100.00
69060;BME280;56135;37.534;-122.308;2023-02-28T12:46:27;101400.97;;;3.58;100.00
69060;BME280;56135;37.534;-122.308;2023-02-28T12:49:04;101404.59;;;3.63;100.00
69060;BME280;56135;37.534;-122.308;2023-02-28T12:51:33;101407.34;;;3.70;100.00
69060;BME280;56135;37.534;-122.308;2023-02-28T13:00:12;101400.97;;;3.93;100.00
69060;BME280;56135;37.534;-122.308;2023-02-28T13:11:45;101400.03;;;4.26;100.00
69060;BME280;56135;37.534;-122.308;2023-02-28T13:14:29;101394.00;;;4.30;100.00
69060;BME280;56135;37.534;-122.308;2023-02-28T13:19:36;101403.75;;;4.38;100.00
69060;BME280;56135;37.534;-122.308;2023-02-28T13:22:03;101399.50;;;4.43;100.00
69060;BME280;56135;37.534;-122.308;2023-02-28T13:29:40;101393.81;;;4.59;100.00
69060;BME280;56135;37.534;-122.308;2023-02-28T13:34:37;101388.81;;;4.72;100.00
69060;BME280;56135;37.534;-122.308;2023-02-28T13:47:40;101376.13;;;4.90;100.00
69060;BME280;56135;37.534;-122.308;2023-02-28T13:53:19;101382.44;;;5.00;100.00
69060;BME280;56135;37.534;-122.308;2023-02-28T14:01:25;101380.84;;;5.07;100.00
69060;BME280;56135;37.534;-122.308;2023-02-28T14:06:59;101364.97;;;4.99;100.00
69060;BME280;56135;37.534;-122.308;2023-02-28T14:09:31;101358.81;;;4.97;100.00
69060;BME280;56135;37.534;-122.308;2023-02-28T14:15:04;101356.38;;;5.08;100.00
69060;BME280;56135;37.534;-122.308;2023-02-28T14:17:55;101352.91;;;5.07;100.00
69060;BME280;56135;37.534;-122.308;2023-02-28T14:20:25;101342.56;;;5.13;100.00
69060;BME280;56135;37.534;-122.308;2023-02-28T14:25:32;101329.56;;;5.21;100.00
69060;BME280;56135;37.534;-122.308;2023-02-28T14:28:42;101319.94;;;5.18;100.00
69060;BME280;56135;37.534;-122.308;2023-02-28T14:31:28;101313.75;;;5.13;100.00
69060;BME280;56135;37.534;-122.308;2023-02-28T14:36:35;101305.06;;;5.16;100.00
69060;BME280;56135;37.534;-122.308;2023-02-28T14:39:19;101295.53;;;5.21;100.00
69060;BME280;56135;37.534;-122.308;2023-02-28T14:41:47;101298.13;;;5.20;100.00
69060;BME280;56135;37.534;-122.308;2023-02-28T14:44:18;101295.53;;;5.21;100.00
69060;BME280;56135;37.534;-122.308;2023-02-28T14:46:46;101293.78;;;5.20;100.00
69060;BME280;56135;37.534;-122.308;2023-02-28T14:49:34;101280.69;;;5.20;100.00
69060;BME280;56135;37.534;-122.308;2023-02-28T14:52:05;101274.63;;;5.24;100.00
69060;BME280;56135;37.534;-122.308;2023-02-28T14:54:38;101278.16;;;5.26;100.00
69060;BME280;56135;37.534;-122.308;2023-02-28T14:57:05;101281.50;;;5.16;100.00
69060;BME280;56135;37.534;-122.308;2023-02-28T14:59:32;101285.84;;;5.17;100.00
69060;BME280;56135;37.534;-122.308;2023-02-28T15:02:18;101280.66;;;5.18;100.00
69060;BME280;56135;37.534;-122.308;2023-02-28T15:04:53;101278.03;;;5.18;100.00
69060;BME280;56135;37.534;-122.308;2023-02-28T15:07:20;101264.97;;;5.20;100.00
69060;BME280;56135;37.534;-122.308;2023-02-28T15:10:26;101269.31;;;5.20;100.00
69060;BME280;56135;37.534;-122.308;2023-02-28T15:12:55;101272.84;;;5.22;100.00
69060;BME280;56135;37.534;-122.308;2023-02-28T15:16:05;101262.38;;;5.23;100.00
69060;BME280;56135;37.534;-122.308;2023-02-28T15:20:52;101266.97;;;5.35;100.00
69060;BME280;56135;37.534;-122.308;2023-02-28T15:23:20;101256.50;;;5.37;100.00
69060;BME280;56135;37.534;-122.308;2023-02-28T15:25:48;101257.53;;;5.46;100.00
69060;BME280;56135;37.534;-122.308;2023-02-28T15:28:19;101258.34;;;5.42;100.00
69060;BME280;56135;37.534;-122.308;2023-02-28T15:31:00;101265.34;;;5.43;100.00
69060;BME280;56135;37.534;-122.308;2023-02-28T15:33:31;101267.13;;;5.44;100.00
69060;BME280;56135;37.534;-122.308;2023-02-28T15:36:14;101276.78;;;5.48;100.00
69060;BME280;56135;37.534;-122.308;2023-02-28T15:38:42;101282.00;;;5.47;100.00
69060;BME280;56135;37.534;-122.308;2023-02-28T15:41:28;101282.91;;;5.49;100.00
69060;BME280;56135;37.534;-122.308;2023-02-28T15:47:05;101276.09;;;5.60;100.00
69060;BME280;56135;37.534;-122.308;2023-02-28T15:49:40;101277.09;;;5.68;100.00
69060;BME280;56135;37.534;-122.308;2023-02-28T15:52:15;101275.53;;;5.78;100.00
69060;BME280;56135;37.534;-122.308;2023-02-28T15:54:44;101275.69;;;5.89;100.00
69060;BME280;56135;37.534;-122.308;2023-02-28T15:57:23;101268.78;;;5.96;100.00
69060;BME280;56135;37.534;-122.308;2023-02-28T16:00:00;101268.09;;;6.06;100.00
69060;BME280;56135;37.534;-122.308;2023-02-28T16:02:33;101273.41;;;6.12;100.00
69060;BME280;56135;37.534;-122.308;2023-02-28T16:07:39;101276.22;;;6.25;100.00
69060;BME280;56135;37.534;-122.308;2023-02-28T16:10:08;101286.81;;;6.32;100.00
69060;BME280;56135;37.534;-122.308;2023-02-28T16:12:38;101280.72;;;6.35;100.00
69060;BME280;56135;37.534;-122.308;2023-02-28T16:15:24;101295.69;;;6.41;100.00
69060;BME280;56135;37.534;-122.308;2023-02-28T16:17:52;101286.09;;;6.44;100.00
69060;BME280;56135;37.534;-122.308;2023-02-28T16:20:25;101308.94;;;6.50;100.00
69060;BME280;56135;37.534;-122.308;2023-02-28T16:22:52;101302.84;;;6.54;100.00
69060;BME280;56135;37.534;-122.308;2023-02-28T16:25:23;101300.25;;;6.57;100.00
69060;BME280;56135;37.534;-122.308;2023-02-28T16:27:52;101309.03;;;6.59;100.00